In Rescue
 
Open Full Screen Window  High Contrast Mode
Wind Gusting 14 knots
08
May 13, 2021 11:23 AM CDT
Weather Information
Wind Direction
  230 °
Wind Speed
  08 kt (9 mph)
Wind Gust
  14 kt (16 mph)
Variable Wind
190°
270°
Altimeter
30.33 in
Visibility
10 SM
Temperature
20° C
68° F
Dewpoint
05° C
41° F
Humidity
38%
1hr Rain Fall
00.00 in.
24hr Rain Fall
00.00 in.
Sky Condition
Clear
VFR

METAR KCBG 131623Z AUTO 23008G14KT 193V273 10SM CLR 20/05 A3033 RMK AO2

FAA Disclaimer: The data displayed is for advisory purposes only and is not to be used for flight planning or operations.